sensor_id;sensor_type;location;lat;lon;timestamp;temperature;humidity
17190;DHT22;8710;49.880;8.272;2022-08-30T00:01:32;18.00;74.30
17190;DHT22;8710;49.880;8.272;2022-08-30T00:03:59;17.90;74.30
17190;DHT22;8710;49.880;8.272;2022-08-30T00:06:27;17.90;74.60
17190;DHT22;8710;49.880;8.272;2022-08-30T00:08:54;17.90;74.50
17190;DHT22;8710;49.880;8.272;2022-08-30T00:11:26;17.90;74.50
17190;DHT22;8710;49.880;8.272;2022-08-30T00:13:56;17.90;74.60
17190;DHT22;8710;49.880;8.272;2022-08-30T00:16:24;17.80;74.70
17190;DHT22;8710;49.880;8.272;2022-08-30T00:18:52;17.80;75.10
17190;DHT22;8710;49.880;8.272;2022-08-30T00:21:19;17.80;75.10
17190;DHT22;8710;49.880;8.272;2022-08-30T00:23:47;17.70;74.80
17190;DHT22;8710;49.880;8.272;2022-08-30T00:26:14;17.70;75.20
17190;DHT22;8710;49.880;8.272;2022-08-30T00:28:41;17.60;75.00
17190;DHT22;8710;49.880;8.272;2022-08-30T00:31:10;17.60;75.30
17190;DHT22;8710;49.880;8.272;2022-08-30T00:33:38;17.60;75.80
17190;DHT22;8710;49.880;8.272;2022-08-30T00:36:05;17.50;75.90
17190;DHT22;8710;49.880;8.272;2022-08-30T00:43:28;17.40;77.00
17190;DHT22;8710;49.880;8.272;2022-08-30T00:45:57;17.40;77.00
17190;DHT22;8710;49.880;8.272;2022-08-30T00:48:25;17.40;77.30
17190;DHT22;8710;49.880;8.272;2022-08-30T00:50:55;17.40;77.70
17190;DHT22;8710;49.880;8.272;2022-08-30T00:53:25;17.40;77.60
17190;DHT22;8710;49.880;8.272;2022-08-30T00:58:26;17.40;78.30
17190;DHT22;8710;49.880;8.272;2022-08-30T01:00:56;17.40;78.20
17190;DHT22;8710;49.880;8.272;2022-08-30T01:03:25;17.40;78.60
17190;DHT22;8710;49.880;8.272;2022-08-30T01:05:52;17.30;78.30
17190;DHT22;8710;49.880;8.272;2022-08-30T01:08:20;17.30;78.60
17190;DHT22;8710;49.880;8.272;2022-08-30T01:10:47;17.30;78.80
17190;DHT22;8710;49.880;8.272;2022-08-30T01:13:15;17.20;78.40
17190;DHT22;8710;49.880;8.272;2022-08-30T01:15:43;17.20;78.80
17190;DHT22;8710;49.880;8.272;2022-08-30T01:18:11;17.10;78.60
17190;DHT22;8710;49.880;8.272;2022-08-30T01:20:47;17.10;79.40
17190;DHT22;8710;49.880;8.272;2022-08-30T01:23:19;17.00;79.40
17190;DHT22;8710;49.880;8.272;2022-08-30T01:25:48;17.00;80.00
17190;DHT22;8710;49.880;8.272;2022-08-30T01:28:19;17.00;80.20
17190;DHT22;8710;49.880;8.272;2022-08-30T01:30:46;17.00;79.70
17190;DHT22;8710;49.880;8.272;2022-08-30T01:33:14;16.90;80.30
17190;DHT22;8710;49.880;8.272;2022-08-30T01:35:46;16.90;80.80
17190;DHT22;8710;49.880;8.272;2022-08-30T01:38:13;16.90;81.30
17190;DHT22;8710;49.880;8.272;2022-08-30T01:40:43;16.80;81.10
17190;DHT22;8710;49.880;8.272;2022-08-30T01:43:11;16.80;81.10
17190;DHT22;8710;49.880;8.272;2022-08-30T01:45:38;16.90;81.30
17190;DHT22;8710;49.880;8.272;2022-08-30T01:50:32;16.80;81.00
17190;DHT22;8710;49.880;8.272;2022-08-30T01:52:59;16.80;81.70
17190;DHT22;8710;49.880;8.272;2022-08-30T01:55:26;16.80;81.60
17190;DHT22;8710;49.880;8.272;2022-08-30T01:57:54;16.80;81.70
17190;DHT22;8710;49.880;8.272;2022-08-30T02:00:21;16.70;82.00
17190;DHT22;8710;49.880;8.272;2022-08-30T02:02:48;16.70;82.10
17190;DHT22;8710;49.880;8.272;2022-08-30T02:05:16;16.60;81.60
17190;DHT22;8710;49.880;8.272;2022-08-30T02:07:43;16.60;82.50
17190;DHT22;8710;49.880;8.272;2022-08-30T02:10:10;16.50;82.40
17190;DHT22;8710;49.880;8.272;2022-08-30T02:12:39;16.50;82.50
17190;DHT22;8710;49.880;8.272;2022-08-30T02:15:08;16.50;82.60
17190;DHT22;8710;49.880;8.272;2022-08-30T02:17:37;16.50;83.30
17190;DHT22;8710;49.880;8.272;2022-08-30T02:20:05;16.40;83.40
17190;DHT22;8710;49.880;8.272;2022-08-30T02:22:32;16.40;83.10
17190;DHT22;8710;49.880;8.272;2022-08-30T02:24:59;16.40;83.40
17190;DHT22;8710;49.880;8.272;2022-08-30T02:27:26;16.30;83.70
17190;DHT22;8710;49.880;8.272;2022-08-30T02:29:53;16.30;84.20
17190;DHT22;8710;49.880;8.272;2022-08-30T02:32:21;16.30;84.30
17190;DHT22;8710;49.880;8.272;2022-08-30T02:37:16;16.30;84.80
17190;DHT22;8710;49.880;8.272;2022-08-30T02:42:10;16.30;84.00
17190;DHT22;8710;49.880;8.272;2022-08-30T02:47:04;16.30;84.70
17190;DHT22;8710;49.880;8.272;2022-08-30T02:49:32;16.20;84.70
17190;DHT22;8710;49.880;8.272;2022-08-30T02:51:59;16.30;84.60
17190;DHT22;8710;49.880;8.272;2022-08-30T02:54:27;16.20;84.60
17190;DHT22;8710;49.880;8.272;2022-08-30T02:56:56;16.20;84.30
17190;DHT22;8710;49.880;8.272;2022-08-30T02:59:23;16.10;84.40
17190;DHT22;8710;49.880;8.272;2022-08-30T03:01:51;16.10;84.60
17190;DHT22;8710;49.880;8.272;2022-08-30T03:04:18;16.10;85.40
17190;DHT22;8710;49.880;8.272;2022-08-30T03:06:46;16.00;85.30
17190;DHT22;8710;49.880;8.272;2022-08-30T03:09:13;16.00;85.70
17190;DHT22;8710;49.880;8.272;2022-08-30T03:11:40;16.00;85.80
17190;DHT22;8710;49.880;8.272;2022-08-30T03:14:07;16.00;85.90
17190;DHT22;8710;49.880;8.272;2022-08-30T03:16:34;15.90;85.60
17190;DHT22;8710;49.880;8.272;2022-08-30T03:19:01;15.90;86.00
17190;DHT22;8710;49.880;8.272;2022-08-30T03:23:56;15.90;86.70
17190;DHT22;8710;49.880;8.272;2022-08-30T03:26:23;15.90;87.00
17190;DHT22;8710;49.880;8.272;2022-08-30T03:28:50;15.90;86.90
17190;DHT22;8710;49.880;8.272;2022-08-30T03:31:17;15.80;87.30
17190;DHT22;8710;49.880;8.272;2022-08-30T03:36:12;15.80;87.10
17190;DHT22;8710;49.880;8.272;2022-08-30T03:41:07;15.70;87.40
17190;DHT22;8710;49.880;8.272;2022-08-30T03:43:34;15.70;87.80
17190;DHT22;8710;49.880;8.272;2022-08-30T03:46:01;15.60;88.00
17190;DHT22;8710;49.880;8.272;2022-08-30T03:48:29;15.60;88.50
17190;DHT22;8710;49.880;8.272;2022-08-30T03:50:56;15.60;88.40
17190;DHT22;8710;49.880;8.272;2022-08-30T03:55:50;15.70;88.60
17190;DHT22;8710;49.880;8.272;2022-08-30T03:58:18;15.60;89.00
17190;DHT22;8710;49.880;8.272;2022-08-30T04:03:12;15.80;88.70
17190;DHT22;8710;49.880;8.272;2022-08-30T04:05:39;15.70;88.40
17190;DHT22;8710;49.880;8.272;2022-08-30T04:10:33;15.70;89.00
17190;DHT22;8710;49.880;8.272;2022-08-30T04:13:00;15.70;89.10
17190;DHT22;8710;49.880;8.272;2022-08-30T04:15:29;15.60;89.00
17190;DHT22;8710;49.880;8.272;2022-08-30T04:20:23;15.70;89.60
17190;DHT22;8710;49.880;8.272;2022-08-30T04:37:36;15.60;90.20
17190;DHT22;8710;49.880;8.272;2022-08-30T04:40:05;15.70;90.10
17190;DHT22;8710;49.880;8.272;2022-08-30T04:54:53;15.80;90.30
17190;DHT22;8710;49.880;8.272;2022-08-30T05:02:14;15.90;90.10
17190;DHT22;8710;49.880;8.272;2022-08-30T05:07:24;16.00;89.60
17190;DHT22;8710;49.880;8.272;2022-08-30T05:17:13;16.20;89.00
17190;DHT22;8710;49.880;8.272;2022-08-30T05:22:07;16.50;89.20
17190;DHT22;8710;49.880;8.272;2022-08-30T05:24:35;16.50;89.00
17190;DHT22;8710;49.880;8.272;2022-08-30T05:27:03;16.60;88.60
17190;DHT22;8710;49.880;8.272;2022-08-30T05:29:30;16.70;88.60
17190;DHT22;8710;49.880;8.272;2022-08-30T05:31:58;16.70;88.70
17190;DHT22;8710;49.880;8.272;2022-08-30T05:34:25;16.80;88.60
17190;DHT22;8710;49.880;8.272;2022-08-30T05:36:52;16.90;88.50
17190;DHT22;8710;49.880;8.272;2022-08-30T05:41:48;17.10;87.90
17190;DHT22;8710;49.880;8.272;2022-08-30T05:46:41;17.30;87.10
17190;DHT22;8710;49.880;8.272;2022-08-30T05:49:10;17.50;87.10
17190;DHT22;8710;49.880;8.272;2022-08-30T05:54:04;17.70;86.30
17190;DHT22;8710;49.880;8.272;2022-08-30T05:59:03;17.90;85.60
17190;DHT22;8710;49.880;8.272;2022-08-30T06:04:03;18.20;85.20
17190;DHT22;8710;49.880;8.272;2022-08-30T06:08:58;18.50;84.30
17190;DHT22;8710;49.880;8.272;2022-08-30T06:16:23;18.90;83.40
17190;DHT22;8710;49.880;8.272;2022-08-30T06:18:51;19.00;83.00
17190;DHT22;8710;49.880;8.272;2022-08-30T06:21:20;19.20;82.40
17190;DHT22;8710;49.880;8.272;2022-08-30T06:26:16;19.40;81.40
17190;DHT22;8710;49.880;8.272;2022-08-30T06:36:10;20.00;80.00
17190;DHT22;8710;49.880;8.272;2022-08-30T06:38:38;20.10;78.30
17190;DHT22;8710;49.880;8.272;2022-08-30T06:41:06;20.30;77.50
17190;DHT22;8710;49.880;8.272;2022-08-30T06:43:33;20.40;78.00
17190;DHT22;8710;49.880;8.272;2022-08-30T06:46:01;20.50;77.20
17190;DHT22;8710;49.880;8.272;2022-08-30T06:48:28;20.70;76.60
17190;DHT22;8710;49.880;8.272;2022-08-30T06:50:56;20.80;74.50
17190;DHT22;8710;49.880;8.272;2022-08-30T06:53:24;21.00;75.00
17190;DHT22;8710;49.880;8.272;2022-08-30T06:55:54;21.10;74.20
17190;DHT22;8710;49.880;8.272;2022-08-30T06:58:22;21.30;73.90
17190;DHT22;8710;49.880;8.272;2022-08-30T07:05:43;21.90;70.90
17190;DHT22;8710;49.880;8.272;2022-08-30T07:10:39;22.40;69.70
17190;DHT22;8710;49.880;8.272;2022-08-30T07:15:34;22.80;68.00
17190;DHT22;8710;49.880;8.272;2022-08-30T07:18:01;23.00;67.90
17190;DHT22;8710;49.880;8.272;2022-08-30T07:20:46;23.30;66.40
17190;DHT22;8710;49.880;8.272;2022-08-30T07:23:14;23.80;63.80
17190;DHT22;8710;49.880;8.272;2022-08-30T07:28:09;24.90;61.70
17190;DHT22;8710;49.880;8.272;2022-08-30T07:30:37;25.90;59.00
17190;DHT22;8710;49.880;8.272;2022-08-30T07:33:04;26.90;56.10
17190;DHT22;8710;49.880;8.272;2022-08-30T07:35:31;27.60;51.50
17190;DHT22;8710;49.880;8.272;2022-08-30T07:37:58;28.00;49.90
17190;DHT22;8710;49.880;8.272;2022-08-30T07:40:26;28.40;48.50
17190;DHT22;8710;49.880;8.272;2022-08-30T07:45:20;29.70;44.00
17190;DHT22;8710;49.880;8.272;2022-08-30T07:47:47;30.50;43.20
17190;DHT22;8710;49.880;8.272;2022-08-30T07:50:14;30.90;39.40
17190;DHT22;8710;49.880;8.272;2022-08-30T07:55:09;32.10;36.90
17190;DHT22;8710;49.880;8.272;2022-08-30T07:57:37;32.70;35.70
17190;DHT22;8710;49.880;8.272;2022-08-30T08:00:05;33.40;33.70
17190;DHT22;8710;49.880;8.272;2022-08-30T08:02:32;33.50;32.50
17190;DHT22;8710;49.880;8.272;2022-08-30T08:05:01;34.20;30.40
17190;DHT22;8710;49.880;8.272;2022-08-30T08:07:29;34.90;31.00
17190;DHT22;8710;49.880;8.272;2022-08-30T08:12:23;35.90;27.30
17190;DHT22;8710;49.880;8.272;2022-08-30T08:14:52;36.40;28.20
17190;DHT22;8710;49.880;8.272;2022-08-30T08:24:40;35.70;27.10
17190;DHT22;8710;49.880;8.272;2022-08-30T08:27:07;35.90;28.00
17190;DHT22;8710;49.880;8.272;2022-08-30T08:44:35;34.80;29.20
17190;DHT22;8710;49.880;8.272;2022-08-30T08:49:37;36.00;27.90
17190;DHT22;8710;49.880;8.272;2022-08-30T08:52:06;37.00;27.20
17190;DHT22;8710;49.880;8.272;2022-08-30T08:54:53;37.90;25.40
17190;DHT22;8710;49.880;8.272;2022-08-30T08:57:21;38.70;23.40
17190;DHT22;8710;49.880;8.272;2022-08-30T09:02:22;38.90;23.50
17190;DHT22;8710;49.880;8.272;2022-08-30T09:04:53;39.30;23.00
17190;DHT22;8710;49.880;8.272;2022-08-30T09:07:22;39.60;23.40
17190;DHT22;8710;49.880;8.272;2022-08-30T09:12:17;40.50;22.70
17190;DHT22;8710;49.880;8.272;2022-08-30T09:14:47;40.60;21.40
17190;DHT22;8710;49.880;8.272;2022-08-30T09:17:17;41.00;21.10
17190;DHT22;8710;49.880;8.272;2022-08-30T09:19:56;42.00;21.10
17190;DHT22;8710;49.880;8.272;2022-08-30T09:22:30;42.70;20.40
17190;DHT22;8710;49.880;8.272;2022-08-30T09:25:00;42.60;19.50
17190;DHT22;8710;49.880;8.272;2022-08-30T09:27:32;43.10;20.70
17190;DHT22;8710;49.880;8.272;2022-08-30T09:30:04;43.90;19.40
17190;DHT22;8710;49.880;8.272;2022-08-30T09:32:35;44.00;19.00
17190;DHT22;8710;49.880;8.272;2022-08-30T09:35:08;44.10;18.90
17190;DHT22;8710;49.880;8.272;2022-08-30T09:37:39;43.80;18.60
17190;DHT22;8710;49.880;8.272;2022-08-30T09:40:16;44.40;18.30
17190;DHT22;8710;49.880;8.272;2022-08-30T09:43:03;45.10;17.60
17190;DHT22;8710;49.880;8.272;2022-08-30T09:45:33;45.20;16.90
17190;DHT22;8710;49.880;8.272;2022-08-30T09:48:02;45.90;16.60
17190;DHT22;8710;49.880;8.272;2022-08-30T09:50:51;46.10;16.70
17190;DHT22;8710;49.880;8.272;2022-08-30T09:53:24;45.50;16.30
17190;DHT22;8710;49.880;8.272;2022-08-30T09:56:02;45.60;16.70
17190;DHT22;8710;49.880;8.272;2022-08-30T09:58:41;46.80;16.40
17190;DHT22;8710;49.880;8.272;2022-08-30T10:01:14;47.10;15.70
17190;DHT22;8710;49.880;8.272;2022-08-30T10:03:50;47.60;14.80
17190;DHT22;8710;49.880;8.272;2022-08-30T10:06:29;47.60;15.50
17190;DHT22;8710;49.880;8.272;2022-08-30T10:09:06;47.10;14.40
17190;DHT22;8710;49.880;8.272;2022-08-30T10:11:43;46.90;15.20
17190;DHT22;8710;49.880;8.272;2022-08-30T10:14:30;46.50;15.20
17190;DHT22;8710;49.880;8.272;2022-08-30T10:17:05;46.20;15.20
17190;DHT22;8710;49.880;8.272;2022-08-30T10:19:47;46.20;14.80
17190;DHT22;8710;49.880;8.272;2022-08-30T10:22:23;45.60;15.10
17190;DHT22;8710;49.880;8.272;2022-08-30T10:24:56;46.60;15.20
17190;DHT22;8710;49.880;8.272;2022-08-30T10:27:29;47.00;14.60
17190;DHT22;8710;49.880;8.272;2022-08-30T10:30:02;47.50;14.90
17190;DHT22;8710;49.880;8.272;2022-08-30T10:32:34;47.30;14.10
17190;DHT22;8710;49.880;8.272;2022-08-30T10:35:07;46.60;13.90
17190;DHT22;8710;49.880;8.272;2022-08-30T10:37:38;46.20;14.60
17190;DHT22;8710;49.880;8.272;2022-08-30T10:40:12;46.70;14.30
17190;DHT22;8710;49.880;8.272;2022-08-30T10:43:01;46.60;14.20
17190;DHT22;8710;49.880;8.272;2022-08-30T10:45:32;47.50;13.90
17190;DHT22;8710;49.880;8.272;2022-08-30T10:48:10;47.00;13.80
17190;DHT22;8710;49.880;8.272;2022-08-30T10:50:41;47.00;13.90
17190;DHT22;8710;49.880;8.272;2022-08-30T10:53:12;47.80;14.20
17190;DHT22;8710;49.880;8.272;2022-08-30T10:55:44;48.70;13.70
17190;DHT22;8710;49.880;8.272;2022-08-30T10:58:14;48.00;12.90
17190;DHT22;8710;49.880;8.272;2022-08-30T11:00:52;48.20;13.10
17190;DHT22;8710;49.880;8.272;2022-08-30T11:06:23;48.50;12.60
17190;DHT22;8710;49.880;8.272;2022-08-30T11:09:13;48.50;12.60
17190;DHT22;8710;49.880;8.272;2022-08-30T11:11:57;48.50;11.80
17190;DHT22;8710;49.880;8.272;2022-08-30T11:14:28;47.50;12.10
17190;DHT22;8710;49.880;8.272;2022-08-30T11:16:58;47.70;12.60
17190;DHT22;8710;49.880;8.272;2022-08-30T11:19:27;47.00;12.20
17190;DHT22;8710;49.880;8.272;2022-08-30T11:22:11;47.00;13.00
17190;DHT22;8710;49.880;8.272;2022-08-30T11:25:01;47.50;12.30
17190;DHT22;8710;49.880;8.272;2022-08-30T11:27:40;47.30;13.10
17190;DHT22;8710;49.880;8.272;2022-08-30T11:30:45;47.50;12.60
17190;DHT22;8710;49.880;8.272;2022-08-30T11:33:42;48.10;12.20
17190;DHT22;8710;49.880;8.272;2022-08-30T11:36:12;48.30;12.30
17190;DHT22;8710;49.880;8.272;2022-08-30T11:39:06;48.40;12.20
17190;DHT22;8710;49.880;8.272;2022-08-30T11:41:36;47.90;12.40
17190;DHT22;8710;49.880;8.272;2022-08-30T11:44:26;47.00;12.70
17190;DHT22;8710;49.880;8.272;2022-08-30T11:46:54;46.90;12.90
17190;DHT22;8710;49.880;8.272;2022-08-30T11:49:56;47.80;12.60
17190;DHT22;8710;49.880;8.272;2022-08-30T11:52:42;48.90;11.80
17190;DHT22;8710;49.880;8.272;2022-08-30T11:55:30;49.20;11.90
17190;DHT22;8710;49.880;8.272;2022-08-30T11:58:12;49.40;11.50
17190;DHT22;8710;49.880;8.272;2022-08-30T12:00:44;49.80;11.60
17190;DHT22;8710;49.880;8.272;2022-08-30T12:03:28;48.90;11.00
17190;DHT22;8710;49.880;8.272;2022-08-30T12:05:58;48.40;11.40
17190;DHT22;8710;49.880;8.272;2022-08-30T12:08:48;49.00;11.40
17190;DHT22;8710;49.880;8.272;2022-08-30T12:14:50;48.90;11.50
17190;DHT22;8710;49.880;8.272;2022-08-30T12:17:25;49.00;11.60
17190;DHT22;8710;49.880;8.272;2022-08-30T12:22:42;48.30;11.70
17190;DHT22;8710;49.880;8.272;2022-08-30T12:25:28;47.80;11.30
17190;DHT22;8710;49.880;8.272;2022-08-30T12:38:13;48.00;11.60
17190;DHT22;8710;49.880;8.272;2022-08-30T12:45:49;49.40;10.50
17190;DHT22;8710;49.880;8.272;2022-08-30T12:48:18;49.20;11.00
17190;DHT22;8710;49.880;8.272;2022-08-30T12:50:49;49.50;10.60
17190;DHT22;8710;49.880;8.272;2022-08-30T12:53:24;49.60;10.60
17190;DHT22;8710;49.880;8.272;2022-08-30T12:55:55;49.60;10.20
17190;DHT22;8710;49.880;8.272;2022-08-30T12:58:38;49.30;10.90
17190;DHT22;8710;49.880;8.272;2022-08-30T13:01:28;49.20;10.70
17190;DHT22;8710;49.880;8.272;2022-08-30T13:03:59;48.40;10.70
17190;DHT22;8710;49.880;8.272;2022-08-30T13:06:47;48.60;10.60
17190;DHT22;8710;49.880;8.272;2022-08-30T13:09:24;48.70;11.00
17190;DHT22;8710;49.880;8.272;2022-08-30T13:11:53;48.10;10.50
17190;DHT22;8710;49.880;8.272;2022-08-30T13:14:33;47.70;10.90
17190;DHT22;8710;49.880;8.272;2022-08-30T13:17:21;46.60;11.40
17190;DHT22;8710;49.880;8.272;2022-08-30T13:19:57;45.70;11.90
17190;DHT22;8710;49.880;8.272;2022-08-30T13:22:28;45.20;12.30
17190;DHT22;8710;49.880;8.272;2022-08-30T13:29:51;45.60;11.80
17190;DHT22;8710;49.880;8.272;2022-08-30T13:34:47;45.70;12.00
17190;DHT22;8710;49.880;8.272;2022-08-30T13:39:42;45.20;12.10
17190;DHT22;8710;49.880;8.272;2022-08-30T13:42:09;44.90;11.90
17190;DHT22;8710;49.880;8.272;2022-08-30T13:49:34;40.30;14.20
17190;DHT22;8710;49.880;8.272;2022-08-30T13:52:02;39.70;15.30
17190;DHT22;8710;49.880;8.272;2022-08-30T13:54:29;39.20;16.20
17190;DHT22;8710;49.880;8.272;2022-08-30T13:56:56;39.30;16.20
17190;DHT22;8710;49.880;8.272;2022-08-30T13:59:24;39.00;16.00
17190;DHT22;8710;49.880;8.272;2022-08-30T14:01:53;39.10;15.90
17190;DHT22;8710;49.880;8.272;2022-08-30T14:04:20;38.80;16.50
17190;DHT22;8710;49.880;8.272;2022-08-30T14:06:48;38.20;16.60
17190;DHT22;8710;49.880;8.272;2022-08-30T14:09:15;37.50;17.40
17190;DHT22;8710;49.880;8.272;2022-08-30T14:11:43;37.00;17.60
17190;DHT22;8710;49.880;8.272;2022-08-30T14:14:10;36.60;18.20
17190;DHT22;8710;49.880;8.272;2022-08-30T14:16:39;36.10;18.30
17190;DHT22;8710;49.880;8.272;2022-08-30T14:19:06;35.60;18.90
17190;DHT22;8710;49.880;8.272;2022-08-30T14:21:33;35.20;19.40
17190;DHT22;8710;49.880;8.272;2022-08-30T14:24:02;34.90;19.70
17190;DHT22;8710;49.880;8.272;2022-08-30T14:26:36;34.60;20.10
17190;DHT22;8710;49.880;8.272;2022-08-30T14:29:06;34.20;20.60
17190;DHT22;8710;49.880;8.272;2022-08-30T14:31:33;34.40;21.20
17190;DHT22;8710;49.880;8.272;2022-08-30T14:34:00;34.60;21.10
17190;DHT22;8710;49.880;8.272;2022-08-30T14:38:55;36.10;19.60
17190;DHT22;8710;49.880;8.272;2022-08-30T14:41:24;36.60;18.70
17190;DHT22;8710;49.880;8.272;2022-08-30T14:46:18;36.30;18.60
17190;DHT22;8710;49.880;8.272;2022-08-30T14:48:46;35.70;18.90
17190;DHT22;8710;49.880;8.272;2022-08-30T14:53:42;35.10;20.20
17190;DHT22;8710;49.880;8.272;2022-08-30T14:56:12;35.30;19.80
17190;DHT22;8710;49.880;8.272;2022-08-30T14:58:40;35.70;19.90
17190;DHT22;8710;49.880;8.272;2022-08-30T15:01:08;36.00;19.80
17190;DHT22;8710;49.880;8.272;2022-08-30T15:03:37;35.90;19.30
17190;DHT22;8710;49.880;8.272;2022-08-30T15:06:04;35.50;19.60
17190;DHT22;8710;49.880;8.272;2022-08-30T15:10:58;35.60;20.70
17190;DHT22;8710;49.880;8.272;2022-08-30T15:15:54;36.30;19.50
17190;DHT22;8710;49.880;8.272;2022-08-30T15:18:21;36.90;19.20
17190;DHT22;8710;49.880;8.272;2022-08-30T15:20:49;37.50;18.90
17190;DHT22;8710;49.880;8.272;2022-08-30T15:25:43;38.20;18.10
17190;DHT22;8710;49.880;8.272;2022-08-30T15:28:10;38.00;18.30
17190;DHT22;8710;49.880;8.272;2022-08-30T15:30:37;37.30;18.60
17190;DHT22;8710;49.880;8.272;2022-08-30T15:33:05;36.60;19.20
17190;DHT22;8710;49.880;8.272;2022-08-30T15:35:32;35.50;20.10
17190;DHT22;8710;49.880;8.272;2022-08-30T15:37:59;34.70;20.90
17190;DHT22;8710;49.880;8.272;2022-08-30T15:50:17;31.90;24.70
17190;DHT22;8710;49.880;8.272;2022-08-30T15:52:44;31.70;24.80
17190;DHT22;8710;49.880;8.272;2022-08-30T15:57:38;31.20;25.90
17190;DHT22;8710;49.880;8.272;2022-08-30T16:00:06;31.00;26.20
17190;DHT22;8710;49.880;8.272;2022-08-30T16:02:34;30.90;26.60
17190;DHT22;8710;49.880;8.272;2022-08-30T16:05:01;30.90;27.30
17190;DHT22;8710;49.880;8.272;2022-08-30T16:07:29;30.80;27.20
17190;DHT22;8710;49.880;8.272;2022-08-30T16:09:56;31.00;27.20
17190;DHT22;8710;49.880;8.272;2022-08-30T16:12:23;31.20;27.00
17190;DHT22;8710;49.880;8.272;2022-08-30T16:14:50;31.30;26.90
17190;DHT22;8710;49.880;8.272;2022-08-30T16:17:17;31.30;26.90
17190;DHT22;8710;49.880;8.272;2022-08-30T16:22:11;31.30;27.00
17190;DHT22;8710;49.880;8.272;2022-08-30T16:24:39;31.10;27.00
17190;DHT22;8710;49.880;8.272;2022-08-30T16:27:06;31.00;27.00
17190;DHT22;8710;49.880;8.272;2022-08-30T16:32:01;30.50;27.60
17190;DHT22;8710;49.880;8.272;2022-08-30T16:34:27;30.30;27.80
17190;DHT22;8710;49.880;8.272;2022-08-30T16:36:55;30.20;28.50
17190;DHT22;8710;49.880;8.272;2022-08-30T16:41:51;29.90;28.90
17190;DHT22;8710;49.880;8.272;2022-08-30T16:44:18;29.70;29.20
17190;DHT22;8710;49.880;8.272;2022-08-30T16:49:13;29.50;29.70
17190;DHT22;8710;49.880;8.272;2022-08-30T16:54:07;29.30;29.90
17190;DHT22;8710;49.880;8.272;2022-08-30T16:56:35;29.10;29.70
17190;DHT22;8710;49.880;8.272;2022-08-30T16:59:05;29.00;30.10
17190;DHT22;8710;49.880;8.272;2022-08-30T17:01:33;29.00;30.30
17190;DHT22;8710;49.880;8.272;2022-08-30T17:04:03;28.80;30.20
17190;DHT22;8710;49.880;8.272;2022-08-30T17:06:30;28.80;30.70
17190;DHT22;8710;49.880;8.272;2022-08-30T17:08:57;28.80;31.00
17190;DHT22;8710;49.880;8.272;2022-08-30T17:11:24;30.40;31.90
17190;DHT22;8710;49.880;8.272;2022-08-30T17:13:51;28.60;31.30
17190;DHT22;8710;49.880;8.272;2022-08-30T17:16:21;28.70;31.70
17190;DHT22;8710;49.880;8.272;2022-08-30T17:18:48;28.70;32.40
17190;DHT22;8710;49.880;8.272;2022-08-30T17:21:16;28.60;33.00
17190;DHT22;8710;49.880;8.272;2022-08-30T17:23:43;28.60;32.70
17190;DHT22;8710;49.880;8.272;2022-08-30T17:26:09;28.60;33.00
17190;DHT22;8710;49.880;8.272;2022-08-30T17:33:32;28.20;34.00
17190;DHT22;8710;49.880;8.272;2022-08-30T17:36:04;28.10;34.40
17190;DHT22;8710;49.880;8.272;2022-08-30T17:38:31;28.00;34.70
17190;DHT22;8710;49.880;8.272;2022-08-30T17:41:00;27.90;35.10
17190;DHT22;8710;49.880;8.272;2022-08-30T17:43:27;27.90;35.80
17190;DHT22;8710;49.880;8.272;2022-08-30T17:46:02;27.70;35.60
17190;DHT22;8710;49.880;8.272;2022-08-30T17:48:29;27.70;36.30
17190;DHT22;8710;49.880;8.272;2022-08-30T17:50:58;27.60;36.10
17190;DHT22;8710;49.880;8.272;2022-08-30T17:53:24;27.50;36.40
17190;DHT22;8710;49.880;8.272;2022-08-30T18:00:46;27.20;37.90
17190;DHT22;8710;49.880;8.272;2022-08-30T18:03:12;27.10;38.40
17190;DHT22;8710;49.880;8.272;2022-08-30T18:08:09;26.90;38.90
17190;DHT22;8710;49.880;8.272;2022-08-30T18:10:36;26.80;39.20
17190;DHT22;8710;49.880;8.272;2022-08-30T18:13:03;26.70;39.60
17190;DHT22;8710;49.880;8.272;2022-08-30T18:17:57;26.50;41.00
17190;DHT22;8710;49.880;8.272;2022-08-30T18:25:20;26.30;41.70
17190;DHT22;8710;49.880;8.272;2022-08-30T18:27:47;26.20;41.70
17190;DHT22;8710;49.880;8.272;2022-08-30T18:30:15;26.10;42.50
17190;DHT22;8710;49.880;8.272;2022-08-30T18:32:42;26.10;42.90
17190;DHT22;8710;49.880;8.272;2022-08-30T18:35:09;25.90;43.10
17190;DHT22;8710;49.880;8.272;2022-08-30T18:37:36;25.80;43.60
17190;DHT22;8710;49.880;8.272;2022-08-30T18:40:03;25.80;44.20
17190;DHT22;8710;49.880;8.272;2022-08-30T18:42:32;25.70;44.00
17190;DHT22;8710;49.880;8.272;2022-08-30T18:52:20;25.30;46.30
17190;DHT22;8710;49.880;8.272;2022-08-30T18:54:47;25.20;46.90
17190;DHT22;8710;49.880;8.272;2022-08-30T18:59:43;25.10;48.10
17190;DHT22;8710;49.880;8.272;2022-08-30T19:02:12;25.10;48.40
17190;DHT22;8710;49.880;8.272;2022-08-30T19:07:09;25.00;48.90
17190;DHT22;8710;49.880;8.272;2022-08-30T19:09:38;25.00;49.00
17190;DHT22;8710;49.880;8.272;2022-08-30T19:12:07;24.90;49.30
17190;DHT22;8710;49.880;8.272;2022-08-30T19:14:34;24.90;49.90
17190;DHT22;8710;49.880;8.272;2022-08-30T19:17:02;24.90;50.60
17190;DHT22;8710;49.880;8.272;2022-08-30T19:19:29;24.80;50.20
17190;DHT22;8710;49.880;8.272;2022-08-30T19:21:56;24.80;50.60
17190;DHT22;8710;49.880;8.272;2022-08-30T19:29:18;24.70;51.70
17190;DHT22;8710;49.880;8.272;2022-08-30T19:31:46;24.60;51.90
17190;DHT22;8710;49.880;8.272;2022-08-30T19:34:14;24.60;52.50
17190;DHT22;8710;49.880;8.272;2022-08-30T19:39:08;24.50;53.00
17190;DHT22;8710;49.880;8.272;2022-08-30T19:41:35;24.50;53.10
17190;DHT22;8710;49.880;8.272;2022-08-30T19:44:03;24.40;53.30
17190;DHT22;8710;49.880;8.272;2022-08-30T19:46:30;24.40;53.40
17190;DHT22;8710;49.880;8.272;2022-08-30T19:51:27;24.20;53.90
17190;DHT22;8710;49.880;8.272;2022-08-30T20:01:16;24.00;55.00
17190;DHT22;8710;49.880;8.272;2022-08-30T20:03:43;23.90;54.90
17190;DHT22;8710;49.880;8.272;2022-08-30T20:06:11;23.90;55.20
17190;DHT22;8710;49.880;8.272;2022-08-30T20:08:39;23.90;55.60
17190;DHT22;8710;49.880;8.272;2022-08-30T20:11:06;23.80;55.70
17190;DHT22;8710;49.880;8.272;2022-08-30T20:13:33;23.80;56.30
17190;DHT22;8710;49.880;8.272;2022-08-30T20:18:27;23.70;56.30
17190;DHT22;8710;49.880;8.272;2022-08-30T20:20:54;23.70;56.90
17190;DHT22;8710;49.880;8.272;2022-08-30T20:23:21;23.70;57.20
17190;DHT22;8710;49.880;8.272;2022-08-30T20:25:51;23.70;57.20
17190;DHT22;8710;49.880;8.272;2022-08-30T20:30:46;23.70;57.30
17190;DHT22;8710;49.880;8.272;2022-08-30T20:35:40;23.70;57.50
17190;DHT22;8710;49.880;8.272;2022-08-30T20:38:08;23.60;57.60
17190;DHT22;8710;49.880;8.272;2022-08-30T20:40:38;23.60;57.60
17190;DHT22;8710;49.880;8.272;2022-08-30T20:43:06;23.50;57.70
17190;DHT22;8710;49.880;8.272;2022-08-30T20:45:33;23.50;57.80
17190;DHT22;8710;49.880;8.272;2022-08-30T20:48:00;23.50;58.00
17190;DHT22;8710;49.880;8.272;2022-08-30T20:50:27;23.40;58.20
17190;DHT22;8710;49.880;8.272;2022-08-30T20:52:54;23.40;58.30
17190;DHT22;8710;49.880;8.272;2022-08-30T20:57:48;23.30;58.50